createdAt,value
2018-01-19T00:00:34.130Z,95.11
2018-01-19T00:03:01.870Z,95.15
2018-01-19T00:05:29.888Z,95.68
2018-01-19T00:07:57.501Z,94.94
2018-01-19T00:10:25.131Z,94.35
2018-01-19T00:12:52.756Z,93.46
2018-01-19T00:15:20.384Z,93.56
2018-01-19T00:17:48.092Z,92.94
2018-01-19T00:20:15.852Z,93.03
2018-01-19T00:22:43.671Z,92.43
2018-01-19T00:25:11.286Z,92.60
2018-01-19T00:27:39.260Z,92.59
2018-01-19T00:30:07.040Z,93.15
2018-01-19T00:32:34.664Z,93.31
2018-01-19T00:35:02.353Z,92.68
2018-01-19T00:37:29.971Z,92.09
2018-01-19T00:39:57.607Z,91.96
2018-01-19T00:42:25.280Z,92.28
2018-01-19T00:44:53.027Z,91.96
2018-01-19T00:47:20.818Z,91.88
2018-01-19T00:49:48.515Z,91.44
2018-01-19T00:52:16.230Z,92.21
2018-01-19T00:54:43.836Z,92.66
2018-01-19T00:57:11.526Z,92.58
2018-01-19T00:59:39.267Z,92.60
2018-01-19T01:02:07.069Z,93.22
2018-01-19T01:04:34.875Z,93.11
2018-01-19T01:07:02.761Z,93.17
2018-01-19T01:09:30.376Z,93.04
2018-01-19T01:11:57.996Z,93.05
2018-01-19T01:14:25.800Z,92.72
2018-01-19T01:16:53.606Z,92.62
2018-01-19T01:19:21.361Z,92.50
2018-01-19T01:21:49.120Z,93.30
2018-01-19T01:24:16.777Z,93.60
2018-01-19T01:26:44.595Z,94.19
2018-01-19T01:29:12.287Z,94.09
2018-01-19T01:31:39.875Z,93.47
2018-01-19T01:34:07.497Z,92.36
2018-01-19T01:36:35.121Z,93.13
2018-01-19T01:39:02.879Z,93.65
2018-01-19T01:41:30.512Z,94.23
2018-01-19T01:43:58.144Z,93.87
2018-01-19T01:46:25.941Z,93.16
2018-01-19T01:49:05.807Z,92.90
2018-01-19T01:51:33.411Z,93.16
2018-01-19T01:54:01.236Z,93.94
2018-01-19T01:56:28.956Z,94.29
2018-01-19T01:58:56.562Z,94.23
2018-01-19T02:01:24.353Z,93.81
2018-01-19T02:03:52.034Z,93.53
2018-01-19T02:06:19.667Z,93.16
2018-01-19T02:08:47.363Z,92.31
2018-01-19T02:11:14.962Z,92.12
2018-01-19T02:13:42.570Z,92.66
2018-01-19T02:16:10.582Z,92.29
2018-01-19T02:18:38.371Z,91.21
2018-01-19T02:21:05.956Z,90.95
2018-01-19T02:23:33.631Z,91.02
2018-01-19T02:26:01.493Z,91.68
2018-01-19T02:28:29.172Z,92.11
2018-01-19T02:30:57.186Z,90.92
2018-01-19T02:33:24.895Z,90.18
2018-01-19T02:35:52.619Z,90.14
2018-01-19T02:38:20.222Z,90.13
2018-01-19T02:40:48.031Z,91.03
2018-01-19T02:43:16.731Z,90.86
2018-01-19T02:45:44.746Z,91.27
2018-01-19T02:48:12.448Z,90.96
2018-01-19T02:50:40.053Z,90.50
2018-01-19T02:53:07.671Z,90.55
2018-01-19T02:55:35.292Z,90.66
2018-01-19T02:58:02.950Z,91.39
2018-01-19T03:00:30.567Z,91.49
2018-01-19T03:02:58.188Z,91.48
2018-01-19T03:05:25.817Z,91.57
2018-01-19T03:07:53.436Z,92.21
2018-01-19T03:10:21.057Z,90.60
2018-01-19T03:12:48.815Z,90.74
2018-01-19T03:15:16.579Z,90.00
2018-01-19T03:17:44.165Z,90.69
2018-01-19T03:20:12.007Z,90.21
2018-01-19T03:22:39.680Z,88.89
2018-01-19T03:25:07.376Z,89.46
2018-01-19T03:27:35.107Z,89.59
2018-01-19T03:30:02.803Z,88.86
2018-01-19T03:32:30.635Z,89.59
2018-01-19T03:34:58.248Z,89.97
2018-01-19T03:37:25.985Z,90.81
2018-01-19T03:39:53.607Z,90.64
2018-01-19T03:42:21.220Z,90.57
2018-01-19T03:44:49.136Z,90.83
2018-01-19T03:47:16.911Z,91.27
2018-01-19T03:49:44.522Z,90.92
2018-01-19T03:52:12.210Z,91.58
2018-01-19T03:54:39.811Z,91.40
2018-01-19T03:57:07.416Z,91.72
2018-01-19T03:59:35.256Z,92.07
2018-01-19T04:02:02.875Z,91.86
2018-01-19T04:04:30.632Z,90.76
2018-01-19T04:06:58.377Z,90.98
2018-01-19T04:09:25.975Z,91.04
2018-01-19T04:11:53.572Z,90.89
2018-01-19T04:14:21.185Z,91.06
2018-01-19T04:16:48.789Z,91.35
2018-01-19T04:19:16.416Z,90.67
2018-01-19T04:21:44.195Z,90.32
2018-01-19T04:24:11.860Z,89.89
2018-01-19T04:26:39.480Z,90.76
2018-01-19T04:29:07.267Z,89.88
2018-01-19T04:31:34.927Z,90.34
2018-01-19T04:34:02.528Z,90.61
2018-01-19T04:36:30.127Z,90.32
2018-01-19T04:38:57.742Z,90.72
2018-01-19T04:41:25.350Z,89.67
2018-01-19T04:43:52.995Z,89.75
2018-01-19T04:46:20.738Z,89.16
2018-01-19T04:48:48.486Z,87.91
2018-01-19T04:51:16.087Z,87.26
2018-01-19T04:53:43.841Z,87.71
2018-01-19T04:56:11.456Z,87.85
2018-01-19T04:58:39.125Z,88.46
2018-01-19T05:01:06.730Z,89.04
2018-01-19T05:03:34.346Z,90.08
2018-01-19T05:06:02.178Z,90.64
2018-01-19T05:08:29.790Z,91.42
2018-01-19T05:10:57.431Z,91.40
2018-01-19T05:13:25.060Z,92.03
2018-01-19T05:15:52.668Z,92.26
2018-01-19T05:18:20.331Z,91.17
2018-01-19T05:20:47.941Z,91.75
2018-01-19T05:23:15.630Z,90.95
2018-01-19T05:25:43.313Z,90.54
2018-01-19T05:28:11.010Z,89.50
2018-01-19T05:30:38.653Z,89.48
2018-01-19T05:33:06.268Z,89.36
2018-01-19T05:35:33.870Z,88.43
2018-01-19T05:38:01.488Z,88.35
2018-01-19T05:40:29.075Z,88.27
2018-01-19T05:42:56.681Z,88.94
2018-01-19T05:45:24.653Z,89.05
2018-01-19T05:47:52.332Z,88.68
2018-01-19T05:50:20.001Z,89.27
2018-01-19T05:52:47.649Z,88.59
2018-01-19T05:55:15.537Z,88.87
2018-01-19T05:57:43.267Z,89.53
2018-01-19T06:00:10.896Z,90.39
2018-01-19T06:02:38.591Z,90.14
2018-01-19T06:05:06.407Z,90.52
2018-01-19T06:07:34.026Z,91.43
2018-01-19T06:10:01.842Z,92.60
2018-01-19T06:12:29.551Z,93.50
2018-01-19T06:14:57.302Z,92.77
2018-01-19T06:17:25.508Z,91.64
2018-01-19T06:19:53.122Z,90.77
2018-01-19T06:22:20.857Z,89.87
2018-01-19T06:24:48.511Z,88.49
2018-01-19T06:27:16.122Z,87.49
2018-01-19T06:29:43.856Z,86.39
2018-01-19T06:32:11.516Z,86.50
2018-01-19T06:34:39.291Z,85.39
2018-01-19T06:37:06.943Z,86.01
2018-01-19T06:39:34.591Z,86.95
2018-01-19T06:42:02.303Z,85.40
2018-01-19T06:44:29.914Z,84.75
2018-01-19T06:46:57.522Z,84.42
2018-01-19T06:49:25.137Z,84.46
2018-01-19T06:51:52.863Z,83.12
2018-01-19T06:54:20.482Z,82.37
2018-01-19T06:56:48.173Z,81.88
2018-01-19T06:59:15.787Z,80.62
2018-01-19T07:01:43.422Z,81.21
2018-01-19T07:04:11.128Z,81.96
2018-01-19T07:06:38.733Z,81.81
2018-01-19T07:09:06.371Z,81.91
2018-01-19T07:11:33.965Z,82.46
2018-01-19T07:14:01.736Z,82.65
2018-01-19T07:16:29.473Z,82.67
2018-01-19T07:18:57.127Z,83.14
2018-01-19T07:21:24.836Z,83.23
2018-01-19T07:23:52.463Z,81.49
2018-01-19T07:26:20.206Z,82.10
2018-01-19T07:28:47.878Z,81.41
2018-01-19T07:31:15.653Z,81.64
2018-01-19T07:33:43.311Z,80.74
2018-01-19T07:36:10.920Z,80.68
2018-01-19T07:38:38.531Z,80.07
2018-01-19T07:41:06.307Z,80.63
2018-01-19T07:43:33.917Z,80.08
2018-01-19T07:46:01.752Z,80.37
2018-01-19T07:48:29.609Z,81.57
2018-01-19T07:50:57.356Z,82.01
2018-01-19T07:53:24.971Z,83.65
2018-01-19T07:55:52.593Z,83.44
2018-01-19T07:58:20.277Z,83.67
2018-01-19T08:00:47.898Z,83.27
2018-01-19T08:03:15.546Z,83.71
2018-01-19T08:05:43.316Z,82.93
2018-01-19T08:08:11.071Z,82.90
2018-01-19T08:10:38.774Z,82.30
2018-01-19T08:13:06.413Z,82.33
2018-01-19T08:15:34.084Z,81.02
2018-01-19T08:18:01.688Z,80.25
2018-01-19T08:20:29.541Z,79.92
2018-01-19T08:22:57.161Z,79.34
2018-01-19T08:25:24.782Z,78.33
2018-01-19T08:27:52.491Z,77.60
2018-01-19T08:30:20.192Z,78.66
2018-01-19T08:32:47.912Z,79.08
2018-01-19T08:35:15.556Z,78.71
2018-01-19T08:37:43.329Z,78.77
2018-01-19T08:40:10.971Z,79.66
2018-01-19T08:42:38.711Z,78.91
2018-01-19T08:49:42.343Z,79.62
2018-01-19T08:52:09.972Z,79.79
2018-01-19T08:54:37.571Z,79.95
2018-01-19T08:57:05.302Z,79.64
2018-01-19T08:59:32.916Z,79.48
2018-01-19T09:02:00.532Z,79.01
2018-01-19T09:04:28.313Z,78.54
2018-01-19T09:06:55.922Z,78.54
2018-01-19T09:09:23.698Z,78.57
2018-01-19T09:11:51.316Z,78.10
2018-01-19T09:14:19.111Z,77.73
2018-01-19T09:16:46.731Z,76.23
2018-01-19T09:19:14.362Z,73.82
2018-01-19T09:21:42.088Z,74.33
2018-01-19T09:24:09.788Z,74.27
2018-01-19T09:26:37.583Z,73.20
2018-01-19T09:29:05.193Z,73.47
2018-01-19T09:31:32.817Z,73.51
2018-01-19T09:34:00.454Z,72.12
2018-01-19T09:36:28.323Z,71.90
2018-01-19T09:38:56.022Z,73.48
2018-01-19T09:41:23.784Z,75.16
2018-01-19T09:43:51.412Z,72.72
2018-01-19T09:46:19.122Z,72.04
2018-01-19T09:48:46.796Z,72.68
2018-01-19T09:51:14.433Z,73.37
2018-01-19T09:53:42.208Z,72.49
2018-01-19T09:56:09.848Z,71.33
2018-01-19T09:58:37.483Z,73.15
2018-01-19T10:01:05.100Z,73.86
2018-01-19T10:03:32.703Z,75.41
2018-01-19T10:06:00.363Z,72.14
2018-01-19T10:08:27.957Z,70.57
2018-01-19T10:10:55.588Z,70.90
2018-01-19T10:13:23.306Z,72.36
2018-01-19T10:15:51.043Z,71.50
2018-01-19T10:18:18.646Z,71.43
2018-01-19T10:20:46.257Z,70.81
2018-01-19T10:23:13.874Z,71.10
2018-01-19T10:25:41.558Z,64.47
2018-01-19T10:28:09.181Z,59.99
2018-01-19T10:30:36.943Z,57.91
2018-01-19T10:33:04.584Z,58.43
2018-01-19T10:35:32.218Z,62.10
2018-01-19T10:37:59.858Z,63.69
2018-01-19T10:40:27.633Z,66.14
2018-01-19T10:42:55.369Z,64.87
2018-01-19T10:45:23.142Z,64.09
2018-01-19T10:47:50.813Z,65.30
2018-01-19T10:50:18.436Z,59.53
2018-01-19T10:52:46.064Z,51.06
2018-01-19T10:55:13.769Z,47.61
2018-01-19T10:57:41.408Z,55.16
2018-01-19T11:00:09.192Z,56.75
2018-01-19T11:02:36.981Z,60.92
2018-01-19T11:05:04.604Z,64.01
2018-01-19T11:07:32.221Z,60.67
2018-01-19T11:09:59.953Z,59.69
2018-01-19T11:12:27.577Z,56.44
2018-01-19T11:14:55.256Z,48.20
2018-01-19T11:17:22.901Z,50.90
2018-01-19T11:19:50.557Z,49.79
2018-01-19T11:22:18.177Z,47.19
2018-01-19T11:24:45.791Z,46.75
2018-01-19T11:27:13.452Z,53.04
2018-01-19T11:29:41.094Z,53.57
2018-01-19T11:32:08.699Z,57.23
2018-01-19T11:34:36.321Z,64.00
2018-01-19T11:37:04.021Z,66.48
2018-01-19T11:39:31.749Z,66.01
2018-01-19T11:41:59.434Z,67.40
2018-01-19T11:44:27.063Z,69.98
2018-01-19T11:46:54.718Z,71.08
2018-01-19T11:49:22.326Z,70.90
2018-01-19T11:51:49.948Z,74.62
2018-01-19T11:54:17.554Z,76.24
2018-01-19T11:56:45.147Z,78.02
2018-01-19T11:59:12.762Z,77.52
2018-01-19T12:01:40.411Z,79.25
2018-01-19T12:04:08.019Z,78.99
2018-01-19T12:06:35.623Z,76.43
2018-01-19T12:09:03.393Z,76.90
2018-01-19T12:11:31.023Z,77.67
2018-01-19T12:13:58.648Z,78.30
2018-01-19T12:16:26.307Z,80.05
2018-01-19T12:18:53.907Z,81.52
2018-01-19T12:21:21.624Z,80.98
2018-01-19T12:23:49.526Z,80.52
2018-01-19T12:26:17.139Z,81.53
2018-01-19T12:28:44.757Z,84.97
2018-01-19T12:31:12.468Z,85.85
2018-01-19T12:33:40.109Z,85.00
2018-01-19T12:36:07.752Z,83.40
2018-01-19T12:38:35.368Z,85.15
2018-01-19T12:41:03.023Z,83.07
2018-01-19T12:43:30.649Z,82.63
2018-01-19T12:45:58.268Z,80.94
2018-01-19T12:48:25.893Z,81.06
2018-01-19T12:50:53.494Z,78.81
2018-01-19T12:53:21.168Z,77.70
2018-01-19T12:55:48.812Z,71.45
2018-01-19T12:58:16.442Z,73.09
2018-01-19T13:00:44.066Z,71.96
2018-01-19T13:03:11.746Z,66.75
2018-01-19T13:05:39.341Z,57.71
2018-01-19T13:08:06.992Z,52.71
2018-01-19T13:10:34.846Z,56.94
2018-01-19T13:13:02.488Z,55.69
2018-01-19T13:15:30.272Z,51.35
2018-01-19T13:17:57.997Z,53.86
2018-01-19T13:20:25.699Z,55.75
2018-01-19T13:22:53.351Z,57.51
2018-01-19T13:25:20.957Z,61.23
2018-01-19T13:27:48.609Z,57.69
2018-01-19T13:30:16.349Z,57.75
2018-01-19T13:32:44.039Z,58.65
2018-01-19T13:35:11.668Z,60.45
2018-01-19T13:37:39.284Z,60.28
2018-01-19T13:40:06.906Z,62.88
2018-01-19T13:42:35.368Z,59.66
2018-01-19T13:45:03.011Z,58.22
2018-01-19T13:47:30.644Z,59.45
2018-01-19T13:49:58.261Z,63.47
2018-01-19T13:52:25.908Z,63.50
2018-01-19T13:54:53.573Z,67.85
2018-01-19T13:57:21.166Z,70.31
2018-01-19T13:59:48.814Z,71.48
2018-01-19T14:02:16.452Z,71.02
2018-01-19T14:04:44.099Z,70.69
2018-01-19T14:07:11.726Z,73.87
2018-01-19T14:09:39.413Z,74.32
2018-01-19T14:12:07.114Z,74.74
2018-01-19T14:14:34.738Z,75.54
2018-01-19T14:17:02.358Z,76.00
2018-01-19T14:19:29.988Z,74.07
2018-01-19T14:21:57.618Z,73.65
2018-01-19T14:24:25.239Z,75.00
2018-01-19T14:26:52.867Z,72.99
2018-01-19T14:29:20.528Z,74.41
2018-01-19T14:31:48.127Z,74.53
2018-01-19T14:34:15.752Z,74.13
2018-01-19T14:36:43.379Z,75.68
2018-01-19T14:39:11.010Z,76.21
2018-01-19T14:41:38.907Z,75.73
2018-01-19T14:44:06.513Z,78.27
2018-01-19T14:46:34.152Z,76.82
2018-01-19T14:49:01.835Z,76.58
2018-01-19T14:51:29.472Z,77.15
2018-01-19T14:53:57.122Z,77.16
2018-01-19T14:56:24.749Z,78.06
2018-01-19T14:58:52.464Z,77.54
2018-01-19T15:01:20.138Z,77.19
2018-01-19T15:03:47.833Z,77.78
2018-01-19T15:06:15.511Z,76.61
2018-01-19T15:08:43.113Z,78.04
2018-01-19T15:11:10.744Z,76.24
2018-01-19T15:13:41.616Z,79.47
2018-01-19T15:16:09.293Z,77.61
2018-01-19T15:18:36.886Z,78.76
2018-01-19T15:21:04.523Z,77.73
2018-01-19T15:23:32.144Z,77.78
2018-01-19T15:25:59.773Z,77.00
2018-01-19T15:28:27.474Z,75.86
2018-01-19T15:30:55.099Z,76.45
2018-01-19T15:33:22.812Z,77.65
2018-01-19T15:35:50.695Z,76.68
2018-01-19T15:38:18.440Z,77.14
2018-01-19T15:40:46.260Z,78.63
2018-01-19T15:43:14.002Z,78.92
2018-01-19T15:45:41.683Z,79.68
2018-01-19T15:48:09.398Z,79.16
2018-01-19T15:51:20.234Z,80.22
2018-01-19T15:53:54.063Z,82.57
2018-01-19T15:59:12.169Z,83.12
2018-01-19T16:14:11.973Z,82.62
2018-01-19T16:16:39.857Z,83.49
2018-01-19T16:19:12.432Z,82.41
2018-01-19T16:21:40.143Z,81.73
2018-01-19T16:24:08.042Z,82.91
2018-01-19T16:26:35.701Z,87.30
2018-01-19T16:29:03.364Z,88.72
2018-01-19T16:31:30.923Z,87.01
2018-01-19T16:33:58.645Z,88.65
2018-01-19T16:36:26.305Z,88.80
2018-01-19T16:38:54.087Z,88.77
2018-01-19T16:41:21.974Z,88.63
2018-01-19T16:43:49.807Z,90.57
2018-01-19T16:46:17.431Z,91.05
2018-01-19T16:48:45.518Z,91.32
2018-01-19T16:51:13.148Z,90.42
2018-01-19T16:53:48.053Z,90.97
2018-01-19T16:56:19.933Z,90.97
2018-01-19T16:58:49.647Z,91.00
2018-01-19T17:01:19.498Z,92.18
2018-01-19T17:07:08.832Z,93.98
2018-01-19T17:09:36.538Z,93.34
2018-01-19T17:12:04.455Z,92.58
2018-01-19T17:14:32.105Z,93.39
2018-01-19T17:16:59.925Z,92.77
2018-01-19T17:19:27.638Z,91.35
2018-01-19T17:21:55.485Z,90.74
2018-01-19T17:24:23.103Z,92.16
2018-01-19T17:26:50.752Z,91.76
2018-01-19T17:29:18.594Z,91.25
2018-01-19T17:31:46.377Z,91.88
2018-01-19T17:34:14.114Z,92.22
2018-01-19T17:36:41.978Z,92.27
2018-01-19T17:39:09.640Z,92.70
2018-01-19T17:41:37.280Z,91.66
2018-01-19T17:44:05.054Z,92.05
2018-01-19T17:46:32.773Z,92.66
2018-01-19T17:49:00.525Z,93.30
2018-01-19T17:51:28.207Z,94.11
2018-01-19T17:53:56.332Z,94.34
2018-01-19T18:00:04.635Z,93.12
2018-01-19T18:02:32.257Z,92.97
2018-01-19T18:04:59.887Z,92.84
2018-01-19T18:07:27.696Z,92.89
2018-01-19T18:09:55.367Z,92.44
2018-01-19T18:12:23.062Z,93.90
2018-01-19T18:14:50.703Z,94.42
2018-01-19T18:17:18.414Z,92.86
2018-01-19T18:19:46.244Z,91.88
2018-01-19T18:22:14.008Z,91.89
2018-01-19T18:24:41.629Z,91.65
2018-01-19T18:27:09.260Z,91.91
2018-01-19T18:29:36.944Z,91.72
2018-01-19T18:32:04.580Z,92.16
2018-01-19T18:34:32.210Z,91.72
2018-01-19T18:36:59.843Z,91.95
2018-01-19T18:39:27.589Z,92.23
2018-01-19T18:41:55.320Z,91.33
2018-01-19T18:44:22.976Z,91.85
2018-01-19T18:46:50.604Z,92.56
2018-01-19T18:49:18.238Z,91.73
2018-01-19T18:51:45.968Z,92.18
2018-01-19T18:54:13.600Z,92.62
2018-01-19T18:56:41.228Z,91.79
2018-01-19T18:59:08.856Z,91.78
2018-01-19T19:01:36.465Z,92.17
2018-01-19T19:04:04.140Z,92.12
2018-01-19T19:06:31.894Z,91.77
2018-01-19T19:08:59.540Z,90.79
2018-01-19T19:11:27.172Z,91.45
2018-01-19T19:13:54.784Z,92.56
2018-01-19T19:16:22.629Z,92.56
2018-01-19T19:18:50.377Z,92.98
2018-01-19T19:21:18.375Z,92.31
2018-01-19T19:30:47.113Z,93.02
2018-01-19T19:33:15.664Z,93.12
2018-01-19T19:35:47.635Z,93.72
2018-01-19T19:41:36.879Z,94.14
2018-01-19T19:48:05.958Z,93.06
2018-01-19T19:54:09.644Z,94.28
2018-01-19T20:07:04.855Z,94.58
2018-01-19T20:09:49.889Z,95.97
2018-01-19T20:12:17.523Z,96.53
2018-01-19T20:14:45.150Z,96.64
2018-01-19T20:17:12.804Z,96.48
2018-01-19T20:19:40.468Z,96.86
2018-01-19T20:22:08.435Z,96.88
2018-01-19T20:24:36.166Z,96.50
2018-01-19T20:27:03.880Z,96.49
2018-01-19T20:29:31.629Z,96.52
2018-01-19T20:31:59.369Z,96.75
2018-01-19T20:34:27.224Z,97.05
2018-01-19T20:36:54.888Z,97.02
2018-01-19T20:39:22.513Z,97.06
2018-01-19T20:41:50.240Z,96.95
2018-01-19T20:44:17.870Z,97.25
2018-01-19T20:46:45.496Z,97.40
2018-01-19T20:49:13.298Z,97.65
2018-01-19T20:51:40.947Z,97.63
2018-01-19T20:54:08.749Z,97.73
2018-01-19T20:56:36.464Z,98.08
2018-01-19T20:59:04.124Z,97.73
2018-01-19T21:01:31.868Z,97.86
2018-01-19T21:03:59.599Z,97.92
2018-01-19T21:06:27.219Z,98.60
2018-01-19T21:08:54.870Z,98.38
2018-01-19T21:11:22.964Z,98.40
2018-01-19T21:13:50.588Z,98.21
2018-01-19T21:16:18.269Z,98.16
2018-01-19T21:18:45.928Z,97.75
2018-01-19T21:21:13.770Z,97.70
2018-01-19T21:23:41.414Z,97.85
2018-01-19T21:26:09.341Z,97.82
2018-01-19T21:28:37.295Z,97.96
2018-01-19T21:31:07.423Z,98.56
2018-01-19T21:33:35.395Z,98.83
2018-01-19T21:45:55.424Z,99.11
2018-01-19T21:51:44.946Z,98.85
2018-01-19T22:00:56.394Z,98.57
2018-01-19T22:03:24.812Z,98.74
2018-01-19T22:05:52.442Z,98.82
2018-01-19T22:08:20.070Z,98.87
2018-01-19T22:10:47.930Z,98.96
2018-01-19T22:13:15.718Z,98.91
2018-01-19T22:15:43.372Z,98.92
2018-01-19T22:18:11.118Z,98.96
2018-01-19T22:20:38.765Z,99.05
2018-01-19T22:23:06.423Z,98.30
2018-01-19T22:25:34.099Z,98.25
2018-01-19T22:28:01.724Z,98.29
2018-01-19T22:30:29.470Z,98.63
2018-01-19T22:32:57.099Z,98.99
2018-01-19T22:35:24.887Z,99.14
2018-01-19T22:37:52.564Z,99.04
2018-01-19T22:40:20.214Z,99.02
2018-01-19T22:42:48.379Z,99.03
2018-01-19T22:45:16.061Z,98.92
2018-01-19T22:47:43.859Z,99.18
2018-01-19T22:50:12.525Z,99.15
2018-01-19T22:52:40.369Z,99.06
2018-01-19T22:55:08.419Z,98.99
2018-01-19T22:57:39.930Z,99.05
2018-01-19T23:00:07.791Z,98.99
2018-01-19T23:02:35.630Z,99.10
2018-01-19T23:05:03.445Z,99.15
2018-01-19T23:07:31.229Z,99.02
2018-01-19T23:09:58.989Z,98.59
2018-01-19T23:12:26.686Z,98.30
2018-01-19T23:14:54.389Z,98.08
2018-01-19T23:17:22.349Z,98.08
2018-01-19T23:19:50.001Z,98.19
2018-01-19T23:22:17.648Z,98.31
2018-01-19T23:24:45.285Z,98.42
2018-01-19T23:27:13.069Z,98.48
2018-01-19T23:29:40.693Z,98.10
2018-01-19T23:32:08.478Z,98.36
2018-01-19T23:34:36.348Z,98.32
2018-01-19T23:37:03.978Z,98.09
2018-01-19T23:39:31.600Z,98.12
2018-01-19T23:41:59.302Z,98.34
2018-01-19T23:44:27.033Z,98.58
2018-01-19T23:46:54.725Z,98.65
2018-01-19T23:49:22.498Z,98.80
2018-01-19T23:51:50.144Z,98.79
2018-01-19T23:54:17.854Z,98.32
2018-01-19T23:56:45.608Z,98.13
2018-01-19T23:59:13.242Z,98.13
